Airfield :
LOGIN :

Register | Disclaimer

   EN    FR    IT 

 










Legend :    VFR   Marginal VFR   IFR   Intensive IFR   Very Intensive IFR
Visi :
Ceiling :
>= 8 km
>= 3000ft
5 to 8 km
1000 to 3000 ft
1500m to 5 km
500 to 1000 ft
800 to 1500m
200 to 500 ft
< 800m
< 200 ft
Symbols :   Thunderstorms  Fog  Heavy snow  Heavy precipitations  Wind > 20 kt
SIGMETs :     Misc.  Thunderstorms  Icing  Turbulence  Mountain Waves  Volcanic Ashes







- Airport Elevation : 1367 ft
- IATA code : FDH


EDNY - Friedrichshafen

CURRENT METAR :
  • 240820Z VRB03KT 9999 -SHRA FEW030 BKN037 20/16 Q1020

EXPIRED METARs :
  • 240750Z 00000KT 9999 FEW030CB BKN033 22/16 Q1020
  • 240720Z 03002KT 9999 OVC037 21/17 Q1020
  • 240650Z AUTO VRB01KT 9999 OVC037 21/16 Q1020
  • 240620Z AUTO VRB01KT 9999 OVC038 21/16 Q1020
  • 240550Z AUTO 00000KT 9999 OVC039 21/15 Q1019

TAF AMD TAF EDNY
Valid from the 24 at 07:00 until the 25 at 06:00 UTC


240720Z 2407/2506 VRB02KT 9999 SCT040
BECMG 2407/2409 25007KT
PROB30
TEMPO 2407/2409 28015G30KT TSRA BKN035CB
BECMG 2418/2420 VRB02KT
PROB30
TEMPO 2503/2506 SHRA BKN045CB
No reported NOTAMs for that airfield.



MET'MAP, your aeronautical weather chart ! - Copyright ORBIFLY December 2007 - Disclaimer

ORBIFLY MET'MAP TEAM :

Programming & Development : Alexandra Zaïnal
Concept & Development : Baudouin d'Aumeries
Co-Development & Prog : Marc-Olivier Méhu
Technical & hardware support : Manuel Goepfert

Contact : metmap@orbifly.com




SOURCES & CREDITS :

   NOAA